sensor_id;sensor_type;location;lat;lon;timestamp;P1;durP1;ratioP1;P2;durP2;ratioP2
14740;SDS011;7462;53.530;9.414;2022-09-20T00:01:14;3.67;;;1.50;;
14740;SDS011;7462;53.530;9.414;2022-09-20T00:03:46;3.07;;;1.73;;
14740;SDS011;7462;53.530;9.414;2022-09-20T00:06:19;5.47;;;1.40;;
14740;SDS011;7462;53.530;9.414;2022-09-20T00:08:48;5.63;;;1.77;;
14740;SDS011;7462;53.530;9.414;2022-09-20T00:11:17;4.67;;;1.40;;
14740;SDS011;7462;53.530;9.414;2022-09-20T00:13:47;4.90;;;1.60;;
14740;SDS011;7462;53.530;9.414;2022-09-20T00:16:18;4.87;;;1.60;;
14740;SDS011;7462;53.530;9.414;2022-09-20T00:18:49;6.70;;;1.73;;
14740;SDS011;7462;53.530;9.414;2022-09-20T00:21:20;4.00;;;1.50;;
14740;SDS011;7462;53.530;9.414;2022-09-20T00:23:52;5.13;;;1.80;;
14740;SDS011;7462;53.530;9.414;2022-09-20T00:26:21;11.90;;;2.33;;
14740;SDS011;7462;53.530;9.414;2022-09-20T00:28:50;5.30;;;2.03;;
14740;SDS011;7462;53.530;9.414;2022-09-20T00:31:18;4.67;;;1.40;;
14740;SDS011;7462;53.530;9.414;2022-09-20T00:33:47;3.63;;;1.43;;
14740;SDS011;7462;53.530;9.414;2022-09-20T00:36:34;7.50;;;1.60;;
14740;SDS011;7462;53.530;9.414;2022-09-20T00:39:02;3.43;;;1.50;;
14740;SDS011;7462;53.530;9.414;2022-09-20T00:41:30;4.20;;;1.60;;
14740;SDS011;7462;53.530;9.414;2022-09-20T00:43:59;4.57;;;1.60;;
14740;SDS011;7462;53.530;9.414;2022-09-20T00:46:32;5.93;;;1.90;;
14740;SDS011;7462;53.530;9.414;2022-09-20T00:49:05;7.93;;;2.30;;
14740;SDS011;7462;53.530;9.414;2022-09-20T00:51:40;6.93;;;1.90;;
14740;SDS011;7462;53.530;9.414;2022-09-20T00:54:12;2.90;;;1.60;;
14740;SDS011;7462;53.530;9.414;2022-09-20T00:56:46;5.20;;;1.30;;
14740;SDS011;7462;53.530;9.414;2022-09-20T00:59:15;6.10;;;1.90;;
14740;SDS011;7462;53.530;9.414;2022-09-20T01:01:47;5.23;;;1.80;;
14740;SDS011;7462;53.530;9.414;2022-09-20T01:04:18;3.23;;;1.50;;
14740;SDS011;7462;53.530;9.414;2022-09-20T01:06:52;4.73;;;1.30;;
14740;SDS011;7462;53.530;9.414;2022-09-20T01:09:24;4.73;;;1.73;;
14740;SDS011;7462;53.530;9.414;2022-09-20T01:11:52;3.83;;;1.40;;
14740;SDS011;7462;53.530;9.414;2022-09-20T01:14:22;4.50;;;1.70;;
14740;SDS011;7462;53.530;9.414;2022-09-20T01:16:52;3.83;;;1.67;;
14740;SDS011;7462;53.530;9.414;2022-09-20T01:19:25;4.40;;;1.70;;
14740;SDS011;7462;53.530;9.414;2022-09-20T01:22:03;3.73;;;1.57;;
14740;SDS011;7462;53.530;9.414;2022-09-20T01:24:37;3.37;;;1.80;;
14740;SDS011;7462;53.530;9.414;2022-09-20T01:27:13;4.70;;;1.37;;
14740;SDS011;7462;53.530;9.414;2022-09-20T01:29:53;4.97;;;1.80;;
14740;SDS011;7462;53.530;9.414;2022-09-20T01:32:34;4.07;;;1.20;;
14740;SDS011;7462;53.530;9.414;2022-09-20T01:35:10;3.73;;;1.47;;
14740;SDS011;7462;53.530;9.414;2022-09-20T01:37:43;4.57;;;2.07;;
14740;SDS011;7462;53.530;9.414;2022-09-20T01:40:17;5.57;;;1.90;;
14740;SDS011;7462;53.530;9.414;2022-09-20T01:42:56;5.47;;;1.87;;
14740;SDS011;7462;53.530;9.414;2022-09-20T01:45:31;6.70;;;2.10;;
14740;SDS011;7462;53.530;9.414;2022-09-20T01:48:03;5.87;;;1.87;;
14740;SDS011;7462;53.530;9.414;2022-09-20T01:50:48;5.67;;;1.97;;
14740;SDS011;7462;53.530;9.414;2022-09-20T01:57:02;2.03;;;1.60;;
14740;SDS011;7462;53.530;9.414;2022-09-20T02:02:55;5.93;;;1.63;;
14740;SDS011;7462;53.530;9.414;2022-09-20T02:05:50;4.03;;;1.57;;
14740;SDS011;7462;53.530;9.414;2022-09-20T02:11:50;4.43;;;1.80;;
14740;SDS011;7462;53.530;9.414;2022-09-20T02:14:34;4.67;;;1.70;;
14740;SDS011;7462;53.530;9.414;2022-09-20T02:17:12;5.33;;;1.77;;
14740;SDS011;7462;53.530;9.414;2022-09-20T02:19:58;3.43;;;1.97;;
14740;SDS011;7462;53.530;9.414;2022-09-20T02:22:40;10.00;;;2.27;;
14740;SDS011;7462;53.530;9.414;2022-09-20T02:25:19;5.40;;;2.30;;
14740;SDS011;7462;53.530;9.414;2022-09-20T02:28:02;4.47;;;1.77;;
14740;SDS011;7462;53.530;9.414;2022-09-20T02:30:46;3.63;;;1.77;;
14740;SDS011;7462;53.530;9.414;2022-09-20T02:33:26;4.63;;;1.73;;
14740;SDS011;7462;53.530;9.414;2022-09-20T02:36:29;3.40;;;1.90;;
14740;SDS011;7462;53.530;9.414;2022-09-20T02:39:06;5.77;;;1.70;;
14740;SDS011;7462;53.530;9.414;2022-09-20T02:41:48;4.83;;;1.80;;
14740;SDS011;7462;53.530;9.414;2022-09-20T02:44:23;2.47;;;1.73;;
14740;SDS011;7462;53.530;9.414;2022-09-20T02:47:16;3.13;;;1.80;;
14740;SDS011;7462;53.530;9.414;2022-09-20T02:50:04;3.20;;;1.50;;
14740;SDS011;7462;53.530;9.414;2022-09-20T02:52:43;3.33;;;1.53;;
14740;SDS011;7462;53.530;9.414;2022-09-20T02:55:25;3.63;;;1.87;;
14740;SDS011;7462;53.530;9.414;2022-09-20T02:58:01;6.37;;;1.57;;
14740;SDS011;7462;53.530;9.414;2022-09-20T03:00:36;4.10;;;1.77;;
14740;SDS011;7462;53.530;9.414;2022-09-20T03:03:12;3.83;;;1.87;;
14740;SDS011;7462;53.530;9.414;2022-09-20T03:05:50;5.47;;;1.70;;
14740;SDS011;7462;53.530;9.414;2022-09-20T03:08:30;2.47;;;1.80;;
14740;SDS011;7462;53.530;9.414;2022-09-20T03:11:07;4.20;;;1.80;;
14740;SDS011;7462;53.530;9.414;2022-09-20T03:13:46;4.03;;;1.80;;
14740;SDS011;7462;53.530;9.414;2022-09-20T03:16:27;2.47;;;1.57;;
14740;SDS011;7462;53.530;9.414;2022-09-20T03:19:09;3.73;;;1.63;;
14740;SDS011;7462;53.530;9.414;2022-09-20T03:21:49;3.07;;;1.67;;
14740;SDS011;7462;53.530;9.414;2022-09-20T03:24:32;3.07;;;1.50;;
14740;SDS011;7462;53.530;9.414;2022-09-20T03:27:10;4.87;;;1.50;;
14740;SDS011;7462;53.530;9.414;2022-09-20T03:29:50;3.03;;;1.50;;
14740;SDS011;7462;53.530;9.414;2022-09-20T03:32:35;3.33;;;1.70;;
14740;SDS011;7462;53.530;9.414;2022-09-20T03:35:17;2.40;;;1.67;;
14740;SDS011;7462;53.530;9.414;2022-09-20T03:38:00;2.43;;;1.50;;
14740;SDS011;7462;53.530;9.414;2022-09-20T03:43:33;3.13;;;1.40;;
14740;SDS011;7462;53.530;9.414;2022-09-20T03:46:15;3.70;;;1.60;;
14740;SDS011;7462;53.530;9.414;2022-09-20T03:48:53;1.57;;;1.30;;
14740;SDS011;7462;53.530;9.414;2022-09-20T03:51:38;2.73;;;1.40;;
14740;SDS011;7462;53.530;9.414;2022-09-20T03:54:33;2.50;;;1.20;;
14740;SDS011;7462;53.530;9.414;2022-09-20T03:57:20;3.97;;;1.40;;
14740;SDS011;7462;53.530;9.414;2022-09-20T04:00:15;4.23;;;1.43;;
14740;SDS011;7462;53.530;9.414;2022-09-20T04:05:44;2.97;;;1.50;;
14740;SDS011;7462;53.530;9.414;2022-09-20T04:08:24;1.87;;;1.40;;
14740;SDS011;7462;53.530;9.414;2022-09-20T04:11:08;3.50;;;1.87;;
14740;SDS011;7462;53.530;9.414;2022-09-20T04:13:48;4.77;;;1.90;;
14740;SDS011;7462;53.530;9.414;2022-09-20T04:16:22;1.80;;;1.40;;
14740;SDS011;7462;53.530;9.414;2022-09-20T04:19:00;3.67;;;1.93;;
14740;SDS011;7462;53.530;9.414;2022-09-20T04:21:37;1.50;;;1.40;;
14740;SDS011;7462;53.530;9.414;2022-09-20T04:24:11;2.60;;;1.80;;
14740;SDS011;7462;53.530;9.414;2022-09-20T04:26:47;3.30;;;1.63;;
14740;SDS011;7462;53.530;9.414;2022-09-20T04:29:26;2.77;;;1.70;;
14740;SDS011;7462;53.530;9.414;2022-09-20T04:32:00;2.57;;;1.33;;
14740;SDS011;7462;53.530;9.414;2022-09-20T04:34:37;2.43;;;1.30;;
14740;SDS011;7462;53.530;9.414;2022-09-20T04:37:27;1.90;;;1.50;;
14740;SDS011;7462;53.530;9.414;2022-09-20T04:40:02;3.37;;;1.40;;
14740;SDS011;7462;53.530;9.414;2022-09-20T04:46:05;2.97;;;1.60;;
14740;SDS011;7462;53.530;9.414;2022-09-20T04:49:17;3.37;;;1.50;;
14740;SDS011;7462;53.530;9.414;2022-09-20T04:52:14;5.40;;;1.93;;
14740;SDS011;7462;53.530;9.414;2022-09-20T04:58:06;1.60;;;1.50;;
14740;SDS011;7462;53.530;9.414;2022-09-20T05:01:13;2.27;;;1.53;;
14740;SDS011;7462;53.530;9.414;2022-09-20T05:10:18;2.43;;;1.30;;
14740;SDS011;7462;53.530;9.414;2022-09-20T05:13:20;2.80;;;1.47;;
14740;SDS011;7462;53.530;9.414;2022-09-20T05:15:59;4.93;;;1.40;;
14740;SDS011;7462;53.530;9.414;2022-09-20T05:18:50;2.90;;;1.53;;
14740;SDS011;7462;53.530;9.414;2022-09-20T05:21:43;2.90;;;1.40;;
14740;SDS011;7462;53.530;9.414;2022-09-20T05:24:52;2.70;;;1.20;;
14740;SDS011;7462;53.530;9.414;2022-09-20T05:27:34;2.57;;;1.30;;
14740;SDS011;7462;53.530;9.414;2022-09-20T05:30:11;2.10;;;1.27;;
14740;SDS011;7462;53.530;9.414;2022-09-20T05:32:46;2.77;;;1.30;;
14740;SDS011;7462;53.530;9.414;2022-09-20T05:35:26;2.80;;;1.60;;
14740;SDS011;7462;53.530;9.414;2022-09-20T05:38:00;3.40;;;1.50;;
14740;SDS011;7462;53.530;9.414;2022-09-20T05:40:42;1.60;;;1.50;;
14740;SDS011;7462;53.530;9.414;2022-09-20T05:43:26;2.20;;;1.53;;
14740;SDS011;7462;53.530;9.414;2022-09-20T05:46:01;2.93;;;1.40;;
14740;SDS011;7462;53.530;9.414;2022-09-20T05:48:38;3.33;;;1.50;;
14740;SDS011;7462;53.530;9.414;2022-09-20T05:51:18;2.57;;;1.37;;
14740;SDS011;7462;53.530;9.414;2022-09-20T05:56:54;3.97;;;1.70;;
14740;SDS011;7462;53.530;9.414;2022-09-20T05:59:36;4.10;;;1.47;;
14740;SDS011;7462;53.530;9.414;2022-09-20T06:02:18;4.10;;;1.23;;
14740;SDS011;7462;53.530;9.414;2022-09-20T06:04:58;8.63;;;1.57;;
14740;SDS011;7462;53.530;9.414;2022-09-20T06:07:35;3.97;;;1.47;;
14740;SDS011;7462;53.530;9.414;2022-09-20T06:13:22;1.93;;;1.40;;
14740;SDS011;7462;53.530;9.414;2022-09-20T06:16:02;2.40;;;1.43;;
14740;SDS011;7462;53.530;9.414;2022-09-20T06:18:34;4.87;;;1.73;;
14740;SDS011;7462;53.530;9.414;2022-09-20T06:21:09;8.17;;;2.10;;
14740;SDS011;7462;53.530;9.414;2022-09-20T06:23:47;3.73;;;1.97;;
14740;SDS011;7462;53.530;9.414;2022-09-20T06:26:16;3.77;;;1.77;;
14740;SDS011;7462;53.530;9.414;2022-09-20T06:28:49;5.40;;;1.90;;
14740;SDS011;7462;53.530;9.414;2022-09-20T06:31:24;3.03;;;1.70;;
14740;SDS011;7462;53.530;9.414;2022-09-20T06:33:53;3.87;;;1.60;;
14740;SDS011;7462;53.530;9.414;2022-09-20T06:36:25;2.93;;;1.37;;
14740;SDS011;7462;53.530;9.414;2022-09-20T06:39:18;3.27;;;1.77;;
14740;SDS011;7462;53.530;9.414;2022-09-20T06:42:12;3.10;;;1.43;;
14740;SDS011;7462;53.530;9.414;2022-09-20T06:44:40;2.77;;;1.60;;
14740;SDS011;7462;53.530;9.414;2022-09-20T06:47:08;2.97;;;1.30;;
14740;SDS011;7462;53.530;9.414;2022-09-20T06:49:37;2.07;;;1.50;;
14740;SDS011;7462;53.530;9.414;2022-09-20T06:52:09;2.83;;;1.90;;
14740;SDS011;7462;53.530;9.414;2022-09-20T06:54:42;1.90;;;1.17;;
14740;SDS011;7462;53.530;9.414;2022-09-20T06:57:11;8.87;;;1.47;;
14740;SDS011;7462;53.530;9.414;2022-09-20T06:59:43;3.73;;;1.30;;
14740;SDS011;7462;53.530;9.414;2022-09-20T07:02:11;3.47;;;1.47;;
14740;SDS011;7462;53.530;9.414;2022-09-20T07:04:39;3.23;;;1.20;;
14740;SDS011;7462;53.530;9.414;2022-09-20T07:07:11;4.63;;;1.10;;
14740;SDS011;7462;53.530;9.414;2022-09-20T07:09:43;3.30;;;1.00;;
14740;SDS011;7462;53.530;9.414;2022-09-20T07:12:11;4.33;;;1.33;;
14740;SDS011;7462;53.530;9.414;2022-09-20T07:14:39;3.13;;;1.27;;
14740;SDS011;7462;53.530;9.414;2022-09-20T07:17:08;3.03;;;1.30;;
14740;SDS011;7462;53.530;9.414;2022-09-20T07:19:36;2.47;;;1.00;;
14740;SDS011;7462;53.530;9.414;2022-09-20T07:22:04;4.47;;;1.43;;
14740;SDS011;7462;53.530;9.414;2022-09-20T07:24:32;2.10;;;0.97;;
14740;SDS011;7462;53.530;9.414;2022-09-20T07:27:02;3.07;;;1.20;;
14740;SDS011;7462;53.530;9.414;2022-09-20T07:29:31;4.73;;;1.10;;
14740;SDS011;7462;53.530;9.414;2022-09-20T07:32:00;3.90;;;1.00;;
14740;SDS011;7462;53.530;9.414;2022-09-20T07:34:28;5.63;;;1.00;;
14740;SDS011;7462;53.530;9.414;2022-09-20T07:36:57;3.60;;;0.80;;
14740;SDS011;7462;53.530;9.414;2022-09-20T07:39:25;4.60;;;1.17;;
14740;SDS011;7462;53.530;9.414;2022-09-20T07:41:53;2.87;;;1.03;;
14740;SDS011;7462;53.530;9.414;2022-09-20T07:44:23;4.97;;;1.40;;
14740;SDS011;7462;53.530;9.414;2022-09-20T07:46:53;5.07;;;1.10;;
14740;SDS011;7462;53.530;9.414;2022-09-20T07:49:23;2.77;;;1.10;;
14740;SDS011;7462;53.530;9.414;2022-09-20T07:51:52;2.47;;;1.03;;
14740;SDS011;7462;53.530;9.414;2022-09-20T07:54:20;4.77;;;1.20;;
14740;SDS011;7462;53.530;9.414;2022-09-20T07:56:48;5.97;;;1.27;;
14740;SDS011;7462;53.530;9.414;2022-09-20T07:59:16;5.50;;;1.60;;
14740;SDS011;7462;53.530;9.414;2022-09-20T08:01:46;7.20;;;1.30;;
14740;SDS011;7462;53.530;9.414;2022-09-20T08:04:14;4.97;;;1.40;;
14740;SDS011;7462;53.530;9.414;2022-09-20T08:06:42;6.40;;;1.30;;
14740;SDS011;7462;53.530;9.414;2022-09-20T08:09:11;3.73;;;1.10;;
14740;SDS011;7462;53.530;9.414;2022-09-20T08:11:40;4.63;;;1.13;;
14740;SDS011;7462;53.530;9.414;2022-09-20T08:14:11;5.63;;;1.30;;
14740;SDS011;7462;53.530;9.414;2022-09-20T08:16:41;7.00;;;1.60;;
14740;SDS011;7462;53.530;9.414;2022-09-20T08:19:14;9.90;;;1.67;;
14740;SDS011;7462;53.530;9.414;2022-09-20T08:21:44;5.23;;;1.27;;
14740;SDS011;7462;53.530;9.414;2022-09-20T08:24:12;6.70;;;1.30;;
14740;SDS011;7462;53.530;9.414;2022-09-20T08:26:41;6.10;;;1.40;;
14740;SDS011;7462;53.530;9.414;2022-09-20T08:29:10;4.90;;;1.10;;
14740;SDS011;7462;53.530;9.414;2022-09-20T08:31:40;7.80;;;1.60;;
14740;SDS011;7462;53.530;9.414;2022-09-20T08:34:09;6.37;;;1.33;;
14740;SDS011;7462;53.530;9.414;2022-09-20T08:36:42;5.53;;;1.40;;
14740;SDS011;7462;53.530;9.414;2022-09-20T08:39:12;5.43;;;1.50;;
14740;SDS011;7462;53.530;9.414;2022-09-20T08:42:04;6.43;;;1.30;;
14740;SDS011;7462;53.530;9.414;2022-09-20T08:44:41;5.73;;;1.50;;
14740;SDS011;7462;53.530;9.414;2022-09-20T08:47:24;5.50;;;1.73;;
14740;SDS011;7462;53.530;9.414;2022-09-20T08:49:54;8.70;;;2.00;;
14740;SDS011;7462;53.530;9.414;2022-09-20T08:52:26;6.20;;;1.40;;
14740;SDS011;7462;53.530;9.414;2022-09-20T08:55:02;5.83;;;1.40;;
14740;SDS011;7462;53.530;9.414;2022-09-20T08:57:38;8.10;;;1.47;;
14740;SDS011;7462;53.530;9.414;2022-09-20T09:00:09;4.33;;;1.20;;
14740;SDS011;7462;53.530;9.414;2022-09-20T09:02:44;6.67;;;1.40;;
14740;SDS011;7462;53.530;9.414;2022-09-20T09:05:20;4.37;;;1.13;;
14740;SDS011;7462;53.530;9.414;2022-09-20T09:08:04;8.53;;;1.60;;
14740;SDS011;7462;53.530;9.414;2022-09-20T09:10:42;6.83;;;1.57;;
14740;SDS011;7462;53.530;9.414;2022-09-20T09:13:13;6.43;;;1.30;;
14740;SDS011;7462;53.530;9.414;2022-09-20T09:15:50;7.80;;;1.63;;
14740;SDS011;7462;53.530;9.414;2022-09-20T09:18:24;6.73;;;1.97;;
14740;SDS011;7462;53.530;9.414;2022-09-20T09:20:58;4.87;;;1.70;;
14740;SDS011;7462;53.530;9.414;2022-09-20T09:23:36;5.20;;;1.30;;
14740;SDS011;7462;53.530;9.414;2022-09-20T09:26:14;5.57;;;1.53;;
14740;SDS011;7462;53.530;9.414;2022-09-20T09:28:44;5.53;;;1.30;;
14740;SDS011;7462;53.530;9.414;2022-09-20T09:31:13;6.70;;;1.53;;
14740;SDS011;7462;53.530;9.414;2022-09-20T09:33:51;8.77;;;1.50;;
14740;SDS011;7462;53.530;9.414;2022-09-20T09:36:20;4.00;;;1.50;;
14740;SDS011;7462;53.530;9.414;2022-09-20T09:39:12;7.63;;;1.40;;
14740;SDS011;7462;53.530;9.414;2022-09-20T09:41:42;6.40;;;1.37;;
14740;SDS011;7462;53.530;9.414;2022-09-20T09:44:19;6.20;;;1.17;;
14740;SDS011;7462;53.530;9.414;2022-09-20T09:46:49;5.97;;;1.20;;
14740;SDS011;7462;53.530;9.414;2022-09-20T09:49:19;5.00;;;1.30;;
14740;SDS011;7462;53.530;9.414;2022-09-20T09:52:04;4.07;;;1.10;;
14740;SDS011;7462;53.530;9.414;2022-09-20T09:54:35;4.33;;;1.30;;
14740;SDS011;7462;53.530;9.414;2022-09-20T09:57:09;4.53;;;1.10;;
14740;SDS011;7462;53.530;9.414;2022-09-20T09:59:56;7.43;;;1.37;;
14740;SDS011;7462;53.530;9.414;2022-09-20T10:05:59;4.37;;;1.20;;
14740;SDS011;7462;53.530;9.414;2022-09-20T10:08:36;4.53;;;1.27;;
14740;SDS011;7462;53.530;9.414;2022-09-20T10:11:16;4.27;;;1.10;;
14740;SDS011;7462;53.530;9.414;2022-09-20T10:13:59;4.70;;;1.53;;
14740;SDS011;7462;53.530;9.414;2022-09-20T10:16:43;5.33;;;1.33;;
14740;SDS011;7462;53.530;9.414;2022-09-20T10:19:21;6.00;;;1.53;;
14740;SDS011;7462;53.530;9.414;2022-09-20T10:22:11;4.03;;;1.53;;
14740;SDS011;7462;53.530;9.414;2022-09-20T10:24:48;5.07;;;1.70;;
14740;SDS011;7462;53.530;9.414;2022-09-20T10:27:32;4.37;;;1.27;;
14740;SDS011;7462;53.530;9.414;2022-09-20T10:30:09;8.10;;;1.63;;
14740;SDS011;7462;53.530;9.414;2022-09-20T10:32:45;7.20;;;1.60;;
14740;SDS011;7462;53.530;9.414;2022-09-20T10:35:25;4.83;;;1.10;;
14740;SDS011;7462;53.530;9.414;2022-09-20T10:38:05;5.90;;;1.23;;
14740;SDS011;7462;53.530;9.414;2022-09-20T10:40:49;6.10;;;1.33;;
14740;SDS011;7462;53.530;9.414;2022-09-20T10:46:50;5.47;;;1.10;;
14740;SDS011;7462;53.530;9.414;2022-09-20T10:49:26;6.33;;;1.30;;
14740;SDS011;7462;53.530;9.414;2022-09-20T10:52:13;5.73;;;1.10;;
14740;SDS011;7462;53.530;9.414;2022-09-20T10:58:19;8.13;;;1.20;;
14740;SDS011;7462;53.530;9.414;2022-09-20T11:01:04;5.27;;;1.40;;
14740;SDS011;7462;53.530;9.414;2022-09-20T11:03:56;5.97;;;1.67;;
14740;SDS011;7462;53.530;9.414;2022-09-20T11:06:39;7.87;;;1.43;;
14740;SDS011;7462;53.530;9.414;2022-09-20T11:09:16;7.67;;;1.40;;
14740;SDS011;7462;53.530;9.414;2022-09-20T11:11:48;9.33;;;1.50;;
14740;SDS011;7462;53.530;9.414;2022-09-20T11:14:20;4.90;;;1.10;;
14740;SDS011;7462;53.530;9.414;2022-09-20T11:17:00;5.87;;;1.40;;
14740;SDS011;7462;53.530;9.414;2022-09-20T11:19:34;4.37;;;1.30;;
14740;SDS011;7462;53.530;9.414;2022-09-20T11:22:14;4.27;;;1.30;;
14740;SDS011;7462;53.530;9.414;2022-09-20T11:24:46;9.30;;;1.57;;
14740;SDS011;7462;53.530;9.414;2022-09-20T11:27:23;6.23;;;1.40;;
14740;SDS011;7462;53.530;9.414;2022-09-20T11:29:56;6.67;;;1.47;;
14740;SDS011;7462;53.530;9.414;2022-09-20T11:32:31;4.00;;;1.13;;
14740;SDS011;7462;53.530;9.414;2022-09-20T11:35:13;6.53;;;1.23;;
14740;SDS011;7462;53.530;9.414;2022-09-20T11:37:53;5.80;;;1.30;;
14740;SDS011;7462;53.530;9.414;2022-09-20T11:40:30;4.27;;;1.10;;
14740;SDS011;7462;53.530;9.414;2022-09-20T11:43:04;5.43;;;1.13;;
14740;SDS011;7462;53.530;9.414;2022-09-20T11:45:34;4.63;;;1.40;;
14740;SDS011;7462;53.530;9.414;2022-09-20T11:48:09;6.53;;;1.30;;
14740;SDS011;7462;53.530;9.414;2022-09-20T11:50:46;5.40;;;1.40;;
14740;SDS011;7462;53.530;9.414;2022-09-20T11:53:34;3.73;;;1.10;;
14740;SDS011;7462;53.530;9.414;2022-09-20T11:56:19;5.73;;;1.40;;
14740;SDS011;7462;53.530;9.414;2022-09-20T11:58:50;5.87;;;1.30;;
14740;SDS011;7462;53.530;9.414;2022-09-20T12:01:23;6.33;;;1.30;;
14740;SDS011;7462;53.530;9.414;2022-09-20T12:03:56;4.20;;;1.30;;
14740;SDS011;7462;53.530;9.414;2022-09-20T12:06:46;7.80;;;1.20;;
14740;SDS011;7462;53.530;9.414;2022-09-20T12:09:35;4.73;;;1.13;;
14740;SDS011;7462;53.530;9.414;2022-09-20T12:12:12;4.97;;;1.23;;
14740;SDS011;7462;53.530;9.414;2022-09-20T12:14:52;6.27;;;1.37;;
14740;SDS011;7462;53.530;9.414;2022-09-20T12:26:51;4.73;;;1.27;;
14740;SDS011;7462;53.530;9.414;2022-09-20T12:38:32;3.50;;;1.03;;
14740;SDS011;7462;53.530;9.414;2022-09-20T12:41:10;3.90;;;1.10;;
14740;SDS011;7462;53.530;9.414;2022-09-20T12:43:49;5.43;;;1.27;;
14740;SDS011;7462;53.530;9.414;2022-09-20T12:46:23;4.87;;;1.00;;
14740;SDS011;7462;53.530;9.414;2022-09-20T12:52:27;4.30;;;1.20;;
14740;SDS011;7462;53.530;9.414;2022-09-20T12:55:36;4.53;;;1.00;;
14740;SDS011;7462;53.530;9.414;2022-09-20T12:58:18;9.90;;;1.40;;
14740;SDS011;7462;53.530;9.414;2022-09-20T13:10:21;4.53;;;1.03;;
14740;SDS011;7462;53.530;9.414;2022-09-20T13:12:56;4.53;;;1.30;;
14740;SDS011;7462;53.530;9.414;2022-09-20T13:15:28;6.73;;;1.77;;
14740;SDS011;7462;53.530;9.414;2022-09-20T13:17:58;4.77;;;1.10;;
14740;SDS011;7462;53.530;9.414;2022-09-20T13:20:28;5.50;;;1.17;;
14740;SDS011;7462;53.530;9.414;2022-09-20T13:23:00;4.53;;;1.20;;
14740;SDS011;7462;53.530;9.414;2022-09-20T13:25:31;8.30;;;1.40;;
14740;SDS011;7462;53.530;9.414;2022-09-20T13:28:07;6.37;;;1.03;;
14740;SDS011;7462;53.530;9.414;2022-09-20T13:30:46;5.73;;;1.07;;
14740;SDS011;7462;53.530;9.414;2022-09-20T13:33:15;5.80;;;0.90;;
14740;SDS011;7462;53.530;9.414;2022-09-20T13:35:48;3.13;;;1.23;;
14740;SDS011;7462;53.530;9.414;2022-09-20T13:38:19;5.63;;;1.20;;
14740;SDS011;7462;53.530;9.414;2022-09-20T13:40:50;3.83;;;1.20;;
14740;SDS011;7462;53.530;9.414;2022-09-20T13:43:24;6.57;;;1.30;;
14740;SDS011;7462;53.530;9.414;2022-09-20T13:45:55;3.73;;;1.00;;
14740;SDS011;7462;53.530;9.414;2022-09-20T13:48:25;4.57;;;1.10;;
14740;SDS011;7462;53.530;9.414;2022-09-20T13:50:55;3.73;;;0.90;;
14740;SDS011;7462;53.530;9.414;2022-09-20T13:53:24;4.47;;;0.93;;
14740;SDS011;7462;53.530;9.414;2022-09-20T13:56:08;4.53;;;1.30;;
14740;SDS011;7462;53.530;9.414;2022-09-20T13:58:41;3.70;;;1.10;;
14740;SDS011;7462;53.530;9.414;2022-09-20T14:01:18;3.57;;;1.07;;
14740;SDS011;7462;53.530;9.414;2022-09-20T14:03:50;4.82;;;1.33;;
14740;SDS011;7462;53.530;9.414;2022-09-20T14:06:22;3.77;;;1.37;;
14740;SDS011;7462;53.530;9.414;2022-09-20T14:08:54;4.43;;;0.90;;
14740;SDS011;7462;53.530;9.414;2022-09-20T14:11:25;3.00;;;1.10;;
14740;SDS011;7462;53.530;9.414;2022-09-20T14:13:58;6.50;;;1.07;;
14740;SDS011;7462;53.530;9.414;2022-09-20T14:16:28;5.23;;;0.97;;
14740;SDS011;7462;53.530;9.414;2022-09-20T14:18:58;3.97;;;1.20;;
14740;SDS011;7462;53.530;9.414;2022-09-20T14:21:30;4.87;;;1.10;;
14740;SDS011;7462;53.530;9.414;2022-09-20T14:24:00;6.87;;;1.30;;
14740;SDS011;7462;53.530;9.414;2022-09-20T14:26:31;4.20;;;1.07;;
14740;SDS011;7462;53.530;9.414;2022-09-20T14:31:55;4.37;;;1.30;;
14740;SDS011;7462;53.530;9.414;2022-09-20T14:34:25;5.47;;;1.10;;
14740;SDS011;7462;53.530;9.414;2022-09-20T14:37:00;4.07;;;0.90;;
14740;SDS011;7462;53.530;9.414;2022-09-20T14:39:31;3.93;;;0.90;;
14740;SDS011;7462;53.530;9.414;2022-09-20T14:42:01;3.47;;;1.00;;
14740;SDS011;7462;53.530;9.414;2022-09-20T14:44:30;3.73;;;1.00;;
14740;SDS011;7462;53.530;9.414;2022-09-20T14:47:13;6.30;;;1.10;;
14740;SDS011;7462;53.530;9.414;2022-09-20T14:49:41;5.13;;;1.00;;
14740;SDS011;7462;53.530;9.414;2022-09-20T14:55:21;2.63;;;0.90;;
14740;SDS011;7462;53.530;9.414;2022-09-20T14:58:04;3.43;;;1.00;;
14740;SDS011;7462;53.530;9.414;2022-09-20T15:00:46;3.67;;;1.00;;
14740;SDS011;7462;53.530;9.414;2022-09-20T15:03:20;3.60;;;1.23;;
14740;SDS011;7462;53.530;9.414;2022-09-20T15:05:52;4.20;;;1.30;;
14740;SDS011;7462;53.530;9.414;2022-09-20T15:08:21;5.83;;;1.10;;
14740;SDS011;7462;53.530;9.414;2022-09-20T15:10:49;3.53;;;0.80;;
14740;SDS011;7462;53.530;9.414;2022-09-20T15:13:17;5.50;;;1.20;;
14740;SDS011;7462;53.530;9.414;2022-09-20T15:15:47;3.85;;;1.08;;
14740;SDS011;7462;53.530;9.414;2022-09-20T15:18:18;4.37;;;1.03;;
14740;SDS011;7462;53.530;9.414;2022-09-20T15:20:48;4.40;;;0.80;;
14740;SDS011;7462;53.530;9.414;2022-09-20T15:23:16;5.67;;;0.90;;
14740;SDS011;7462;53.530;9.414;2022-09-20T15:25:45;5.60;;;1.07;;
14740;SDS011;7462;53.530;9.414;2022-09-20T15:28:17;2.87;;;1.00;;
14740;SDS011;7462;53.530;9.414;2022-09-20T15:30:46;5.30;;;1.30;;
14740;SDS011;7462;53.530;9.414;2022-09-20T15:33:16;3.87;;;0.90;;
14740;SDS011;7462;53.530;9.414;2022-09-20T15:35:45;4.67;;;1.07;;
14740;SDS011;7462;53.530;9.414;2022-09-20T15:38:15;5.07;;;1.20;;
14740;SDS011;7462;53.530;9.414;2022-09-20T15:40:44;5.63;;;1.40;;
14740;SDS011;7462;53.530;9.414;2022-09-20T15:43:15;5.07;;;1.17;;
14740;SDS011;7462;53.530;9.414;2022-09-20T15:45:46;4.37;;;1.00;;
14740;SDS011;7462;53.530;9.414;2022-09-20T15:48:17;3.30;;;0.90;;
14740;SDS011;7462;53.530;9.414;2022-09-20T15:50:59;6.90;;;1.57;;
14740;SDS011;7462;53.530;9.414;2022-09-20T15:53:29;4.50;;;1.10;;
14740;SDS011;7462;53.530;9.414;2022-09-20T15:55:58;3.93;;;0.93;;
14740;SDS011;7462;53.530;9.414;2022-09-20T15:58:28;5.63;;;1.57;;
14740;SDS011;7462;53.530;9.414;2022-09-20T16:01:04;4.10;;;0.93;;
14740;SDS011;7462;53.530;9.414;2022-09-20T16:03:33;5.78;;;1.30;;
14740;SDS011;7462;53.530;9.414;2022-09-20T16:06:03;3.97;;;1.27;;
14740;SDS011;7462;53.530;9.414;2022-09-20T16:08:33;6.97;;;1.10;;
14740;SDS011;7462;53.530;9.414;2022-09-20T16:11:03;5.03;;;1.13;;
14740;SDS011;7462;53.530;9.414;2022-09-20T16:13:33;3.60;;;0.90;;
14740;SDS011;7462;53.530;9.414;2022-09-20T16:16:04;5.63;;;1.20;;
14740;SDS011;7462;53.530;9.414;2022-09-20T16:18:34;4.30;;;1.00;;
14740;SDS011;7462;53.530;9.414;2022-09-20T16:21:19;3.97;;;1.20;;
14740;SDS011;7462;53.530;9.414;2022-09-20T16:23:48;7.03;;;1.20;;
14740;SDS011;7462;53.530;9.414;2022-09-20T16:26:18;5.37;;;1.17;;
14740;SDS011;7462;53.530;9.414;2022-09-20T16:28:47;4.20;;;0.90;;
14740;SDS011;7462;53.530;9.414;2022-09-20T16:31:30;4.03;;;0.80;;
14740;SDS011;7462;53.530;9.414;2022-09-20T16:34:02;4.13;;;0.93;;
14740;SDS011;7462;53.530;9.414;2022-09-20T16:36:31;3.20;;;0.87;;
14740;SDS011;7462;53.530;9.414;2022-09-20T16:38:59;4.70;;;1.10;;
14740;SDS011;7462;53.530;9.414;2022-09-20T16:41:28;4.97;;;1.00;;
14740;SDS011;7462;53.530;9.414;2022-09-20T16:43:57;4.43;;;1.20;;
14740;SDS011;7462;53.530;9.414;2022-09-20T16:46:25;2.73;;;0.90;;
14740;SDS011;7462;53.530;9.414;2022-09-20T16:48:55;5.13;;;1.10;;
14740;SDS011;7462;53.530;9.414;2022-09-20T16:51:28;3.70;;;0.90;;
14740;SDS011;7462;53.530;9.414;2022-09-20T16:53:59;5.80;;;1.40;;
14740;SDS011;7462;53.530;9.414;2022-09-20T16:56:29;7.57;;;2.13;;
14740;SDS011;7462;53.530;9.414;2022-09-20T16:59:00;5.77;;;1.70;;
14740;SDS011;7462;53.530;9.414;2022-09-20T17:01:29;10.43;;;3.07;;
14740;SDS011;7462;53.530;9.414;2022-09-20T17:03:59;8.47;;;3.73;;
14740;SDS011;7462;53.530;9.414;2022-09-20T17:06:30;9.13;;;4.80;;
14740;SDS011;7462;53.530;9.414;2022-09-20T17:09:00;14.60;;;5.50;;
14740;SDS011;7462;53.530;9.414;2022-09-20T17:11:30;13.60;;;5.00;;
14740;SDS011;7462;53.530;9.414;2022-09-20T17:13:59;11.37;;;4.00;;